createdAt,value
2022-11-24T00:02:26.810Z,91.20
2022-11-24T00:06:30.718Z,91.34
2022-11-24T00:10:35.477Z,91.23
2022-11-24T00:14:38.257Z,91.32
2022-11-24T00:18:42.425Z,91.50
2022-11-24T00:22:45.171Z,91.62
2022-11-24T00:26:49.316Z,91.53
2022-11-24T00:30:52.039Z,91.65
2022-11-24T00:34:54.849Z,91.90
2022-11-24T00:38:59.608Z,91.86
2022-11-24T00:43:03.734Z,92.26
2022-11-24T00:47:06.653Z,92.37
2022-11-24T00:51:11.622Z,92.63
2022-11-24T00:55:14.471Z,92.72
2022-11-24T00:59:18.550Z,93.03
2022-11-24T01:03:22.578Z,93.34
2022-11-24T01:07:25.314Z,93.79
2022-11-24T01:11:29.667Z,93.83
2022-11-24T01:15:36.399Z,93.99
2022-11-24T01:19:39.835Z,93.82
2022-11-24T01:23:45.817Z,94.26
2022-11-24T01:27:48.673Z,94.21
2022-11-24T01:31:52.794Z,94.31
2022-11-24T01:35:55.656Z,94.12
2022-11-24T01:39:58.394Z,94.04
2022-11-24T01:44:01.094Z,94.06
2022-11-24T01:48:08.519Z,94.09
2022-11-24T01:52:15.928Z,94.00
2022-11-24T01:56:19.622Z,94.26
2022-11-24T02:00:22.609Z,94.36
2022-11-24T02:04:30.780Z,94.04
2022-11-24T02:08:40.276Z,93.98
2022-11-24T02:12:46.850Z,94.13
2022-11-24T02:16:51.531Z,93.73
2022-11-24T02:20:56.405Z,93.72
2022-11-24T02:25:07.844Z,93.70
2022-11-24T02:29:12.966Z,93.98
2022-11-24T02:33:16.491Z,93.97
2022-11-24T02:37:19.162Z,93.68
2022-11-24T02:41:23.836Z,93.78
2022-11-24T02:45:29.001Z,94.22
2022-11-24T02:49:31.748Z,94.09
2022-11-24T02:53:34.446Z,94.14
2022-11-24T02:57:37.161Z,94.52
2022-11-24T03:01:41.308Z,94.32
2022-11-24T03:05:44.127Z,94.14
2022-11-24T03:09:46.844Z,94.39
2022-11-24T03:13:50.611Z,94.34
2022-11-24T03:17:57.563Z,94.57
2022-11-24T03:22:00.514Z,94.24
2022-11-24T03:26:10.230Z,94.34
2022-11-24T03:30:13.757Z,94.60
2022-11-24T03:34:17.814Z,94.37
2022-11-24T03:38:20.506Z,94.41
2022-11-24T03:42:23.244Z,94.34
2022-11-24T03:46:26.071Z,94.45
2022-11-24T03:50:30.239Z,94.49
2022-11-24T03:54:33.031Z,94.21
2022-11-24T03:58:35.959Z,94.17
2022-11-24T04:02:38.933Z,94.21
2022-11-24T04:06:43.306Z,94.30
2022-11-24T04:10:45.931Z,94.48
2022-11-24T04:14:48.642Z,94.37
2022-11-24T04:18:53.355Z,94.26
2022-11-24T04:22:57.442Z,94.18
2022-11-24T04:27:00.276Z,94.21
2022-11-24T04:31:03.320Z,94.20
2022-11-24T04:35:06.706Z,93.74
2022-11-24T04:39:24.292Z,93.85
